Terminal Aerodrome Forecast
Issued by NWS Newport/Morehead City, NC

Home | Current Version | Previous Version | Text Only | Print | Product List | Glossary On
Versions: 1 2 3 4 5 6 7 8 9 10 11 12 13 14 15 16 17
000
FTUS42 KMHX 251700
TAFEWN
TAF
KEWN 251723Z 2518/2618 25004KT P6SM SCT007 OVC090
     FM252300 33005KT 5SM -RA BR OVC030
     FM260400 02010G15KT 3SM RA OVC010
     FM261700 34012G17KT P6SM VCSH OVC030=

USA.gov is the U.S. government's official web portal to all federal, state and local government web resources and services.